Time;durP1;ratioP1;P1;durP2;ratioP2;P2;SDS_P1;SDS_P2;PMS_P1;PMS_P2;Temp;Humidity;BMP_temperature;BMP_pressure;BME280_temperature;BME280_humidity;BME280_pressure;Samples;Min_cycle;Max_cycle;Signal;HPM_P1;HPM_P2
2021/10/31 00:02:25;;;;;;;4.23;2.20;;;12.80;99.90;;;;;;4953155;28;20177;-67
2021/10/31 00:04:50;;;;;;;2.80;2.40;;;12.80;99.90;;;;;;4953485;28;20538;-67
2021/10/31 00:07:16;;;;;;;2.53;1.90;;;12.70;99.90;;;;;;4953423;28;20173;-66
2021/10/31 00:09:41;;;;;;;2.53;2.33;;;12.60;99.90;;;;;;4952702;28;20207;-65
2021/10/31 00:12:07;;;;;;;2.30;2.20;;;12.60;99.90;;;;;;4953759;28;20249;-66
2021/10/31 00:14:33;;;;;;;3.47;2.40;;;12.50;99.90;;;;;;4953419;28;20177;-67
2021/10/31 00:16:59;;;;;;;2.47;2.27;;;12.50;99.90;;;;;;4953342;28;20432;-66
2021/10/31 00:19:26;;;;;;;2.80;2.20;;;12.50;99.90;;;;;;4953082;28;20299;-65
2021/10/31 00:21:52;;;;;;;2.50;2.30;;;12.50;99.90;;;;;;4953497;28;20240;-67
2021/10/31 00:24:17;;;;;;;2.97;2.73;;;12.50;99.90;;;;;;4953316;28;20877;-66
2021/10/31 00:26:43;;;;;;;2.60;2.40;;;12.50;99.90;;;;;;4953267;28;20185;-66
2021/10/31 00:29:08;;;;;;;2.67;2.47;;;12.50;99.90;;;;;;4952797;28;20200;-67
2021/10/31 00:31:34;;;;;;;3.00;2.70;;;12.50;99.90;;;;;;4953053;28;20169;-66
2021/10/31 00:34:00;;;;;;;3.80;2.50;;;12.50;99.90;;;;;;4953362;28;20598;-67
2021/10/31 00:36:26;;;;;;;2.63;2.43;;;12.50;99.90;;;;;;4953155;28;20432;-66
2021/10/31 00:38:51;;;;;;;2.90;2.70;;;12.50;99.90;;;;;;4952526;28;20807;-66
2021/10/31 00:41:17;;;;;;;2.07;1.93;;;12.50;99.90;;;;;;4952901;28;20669;-66
2021/10/31 00:43:43;;;;;;;3.23;3.03;;;12.50;99.90;;;;;;4953010;28;20284;-67
2021/10/31 00:46:08;;;;;;;2.80;2.60;;;12.50;99.90;;;;;;4952925;28;20701;-66
2021/10/31 00:48:34;;;;;;;2.80;2.60;;;12.40;99.90;;;;;;4952451;28;20686;-67
2021/10/31 00:51:00;;;;;;;2.40;2.20;;;12.40;99.90;;;;;;4952835;28;20177;-66
2021/10/31 00:53:26;;;;;;;2.37;2.20;;;12.30;99.90;;;;;;4952851;28;20188;-66
2021/10/31 00:55:51;;;;;;;2.80;2.60;;;12.30;99.90;;;;;;4952768;28;20236;-65
2021/10/31 00:58:18;;;;;;;2.70;2.23;;;12.20;99.90;;;;;;4954170;28;20525;-66
2021/10/31 01:00:46;;;;;;;2.63;2.10;;;12.20;99.90;;;;;;4955658;28;20169;-66
2021/10/31 01:03:11;;;;;;;2.73;2.53;;;12.20;99.90;;;;;;4955722;28;20950;-67
2021/10/31 01:05:42;;;;;;;2.47;2.37;;;12.10;99.90;;;;;;4955598;28;20416;-66
2021/10/31 01:08:40;;;;;;;4.03;1.90;;;12.10;99.90;;;;;;4955294;28;20192;-66
2021/10/31 01:11:17;;;;;;;2.77;2.57;;;12.10;99.90;;;;;;4937000;29;20997;-67
2021/10/31 01:13:58;;;;;;;2.67;2.47;;;12.10;99.90;;;;;;4955735;28;20851;-66
2021/10/31 01:16:31;;;;;;;2.73;2.53;;;12.00;99.90;;;;;;4955519;28;20423;-66
2021/10/31 01:19:06;;;;;;;2.93;2.67;;;12.00;99.90;;;;;;4955010;28;21008;-66
2021/10/31 01:21:47;;;;;;;4.00;3.07;;;12.00;99.90;;;;;;4955386;28;20463;-65
2021/10/31 01:24:12;;;;;;;2.63;2.43;;;11.90;99.90;;;;;;4970088;28;20984;-65
2021/10/31 01:27:05;;;;;;;3.00;2.80;;;11.90;99.90;;;;;;4955313;28;20409;-66
2021/10/31 01:30:14;;;;;;;2.60;2.40;;;11.80;99.90;;;;;;4954972;28;20189;-65
2021/10/31 01:32:55;;;;;;;2.07;1.97;;;11.80;99.90;;;;;;4955226;28;20419;-66
2021/10/31 01:35:39;;;;;;;3.30;2.97;;;11.80;99.90;;;;;;4955196;28;20926;-66
2021/10/31 01:38:30;;;;;;;2.97;2.73;;;11.80;99.90;;;;;;4954726;28;20860;-66
2021/10/31 01:41:03;;;;;;;2.73;2.53;;;11.80;99.90;;;;;;4955077;29;20467;-65
2021/10/31 01:43:39;;;;;;;3.93;2.83;;;11.90;99.90;;;;;;4954998;28;20491;-65
2021/10/31 01:46:04;;;;;;;3.47;3.17;;;11.90;99.90;;;;;;4955070;28;20491;-66
2021/10/31 01:48:48;;;;;;;2.80;2.60;;;11.90;99.90;;;;;;4954535;28;20930;-66
2021/10/31 01:51:23;;;;;;;2.90;2.60;;;11.90;99.90;;;;;;4955100;28;20173;-67
2021/10/31 01:54:01;;;;;;;2.57;2.37;;;11.90;99.90;;;;;;4954854;28;20416;-66
2021/10/31 01:56:28;;;;;;;5.10;3.53;;;11.90;99.90;;;;;;4954783;28;20416;-66
2021/10/31 01:59:09;;;;;;;2.90;2.70;;;11.80;99.90;;;;;;4954322;28;20535;-67
2021/10/31 02:01:36;;;;;;;3.23;2.80;;;11.80;99.90;;;;;;4954671;28;20436;-66
2021/10/31 02:04:11;;;;;;;2.80;2.60;;;11.70;99.90;;;;;;4954606;28;20464;-66
2021/10/31 02:06:42;;;;;;;3.97;3.40;;;11.70;99.90;;;;;;4954661;28;20544;-66
2021/10/31 02:09:08;;;;;;;3.03;2.77;;;11.70;99.90;;;;;;4954275;29;20937;-67
2021/10/31 02:11:36;;;;;;;2.73;2.43;;;11.70;99.90;;;;;;4954586;28;20428;-66
2021/10/31 02:14:02;;;;;;;2.80;2.60;;;11.70;99.90;;;;;;4954513;28;20910;-66
2021/10/31 02:16:29;;;;;;;4.20;3.80;;;11.60;99.90;;;;;;4954514;28;20841;-66
2021/10/31 02:19:04;;;;;;;3.20;2.90;;;11.60;99.90;;;;;;4953957;28;20467;-66
2021/10/31 02:21:32;;;;;;;3.10;2.90;;;11.60;99.90;;;;;;4954463;28;20756;-66
2021/10/31 02:23:59;;;;;;;3.90;3.60;;;11.50;99.90;;;;;;4954170;28;20825;-66
2021/10/31 02:26:25;;;;;;;3.43;3.20;;;11.50;99.90;;;;;;4954369;28;20838;-67
2021/10/31 02:28:58;;;;;;;3.87;3.57;;;11.50;99.90;;;;;;4954025;28;20535;-67
2021/10/31 02:31:24;;;;;;;3.10;2.80;;;11.50;99.90;;;;;;4954301;28;20169;-66
2021/10/31 02:33:50;;;;;;;3.90;3.20;;;11.50;99.90;;;;;;4953863;28;20456;-66
2021/10/31 02:36:15;;;;;;;3.33;3.10;;;11.40;99.90;;;;;;4953569;28;20534;-66
2021/10/31 02:38:41;;;;;;;4.30;3.90;;;11.30;99.90;;;;;;4953525;28;20204;-65
2021/10/31 02:41:09;;;;;;;4.77;3.43;;;11.30;99.90;;;;;;4953812;28;20182;-65
2021/10/31 02:43:35;;;;;;;3.30;3.00;;;11.20;99.90;;;;;;4954079;28;20280;-67
2021/10/31 02:46:01;;;;;;;3.67;3.30;;;11.20;99.90;;;;;;4953570;28;20615;-66
2021/10/31 02:48:28;;;;;;;4.10;3.70;;;11.20;99.90;;;;;;4953674;28;20528;-66
2021/10/31 02:51:01;;;;;;;3.50;3.30;;;11.20;99.90;;;;;;4953881;28;20184;-66
2021/10/31 02:53:42;;;;;;;3.67;3.30;;;11.30;99.90;;;;;;4953997;28;20423;-67
2021/10/31 02:56:17;;;;;;;2.90;2.70;;;11.30;99.90;;;;;;4953924;28;20447;-66
2021/10/31 02:58:52;;;;;;;3.80;3.50;;;11.30;99.90;;;;;;4953663;28;20436;-66
2021/10/31 03:01:19;;;;;;;2.60;2.40;;;11.30;99.90;;;;;;4953745;28;20420;-66
2021/10/31 03:03:46;;;;;;;3.40;3.13;;;11.40;99.90;;;;;;4953802;28;20979;-66
2021/10/31 03:06:12;;;;;;;3.87;3.10;;;11.40;99.90;;;;;;4953771;28;20448;-67
2021/10/31 03:08:38;;;;;;;4.27;2.87;;;11.40;99.90;;;;;;4953426;28;20989;-66
2021/10/31 03:11:08;;;;;;;4.13;3.37;;;11.30;99.90;;;;;;4953776;28;20448;-65
2021/10/31 03:13:34;;;;;;;3.10;2.90;;;11.30;99.90;;;;;;4953798;28;20169;-67
2021/10/31 03:16:00;;;;;;;4.97;2.93;;;11.30;99.90;;;;;;4953752;28;20788;-66
2021/10/31 03:18:26;;;;;;;4.20;3.20;;;11.20;99.90;;;;;;4953319;28;20970;-66
2021/10/31 03:20:52;;;;;;;3.93;3.67;;;11.10;99.90;;;;;;4953691;28;20180;-66
2021/10/31 03:23:19;;;;;;;4.50;2.97;;;11.10;99.90;;;;;;4953635;28;20581;-67
2021/10/31 03:25:45;;;;;;;3.63;3.30;;;11.10;99.90;;;;;;4953671;28;20412;-66
2021/10/31 03:28:11;;;;;;;3.20;2.93;;;11.00;99.90;;;;;;4953345;28;20564;-66
2021/10/31 03:30:36;;;;;;;3.30;3.00;;;11.00;99.90;;;;;;4953663;28;20456;-66
2021/10/31 03:33:02;;;;;;;2.90;2.70;;;10.90;99.90;;;;;;4953607;28;20259;-66
2021/10/31 03:35:28;;;;;;;3.00;2.80;;;10.80;99.90;;;;;;4953566;28;20179;-66
2021/10/31 03:37:54;;;;;;;3.73;3.43;;;10.80;99.90;;;;;;4953190;28;20219;-66
2021/10/31 03:40:19;;;;;;;3.27;2.50;;;10.80;99.90;;;;;;4953536;28;20227;-66
2021/10/31 03:42:45;;;;;;;2.80;2.60;;;10.80;99.90;;;;;;4953476;28;20260;-66
2021/10/31 03:45:12;;;;;;;3.53;3.23;;;10.80;99.90;;;;;;4955073;28;20209;-67
2021/10/31 03:47:43;;;;;;;2.80;2.60;;;10.80;99.90;;;;;;4956720;28;20197;-66
2021/10/31 03:50:09;;;;;;;3.40;3.10;;;10.70;99.90;;;;;;4957115;28;20420;-66
2021/10/31 03:52:35;;;;;;;3.87;3.00;;;10.60;99.90;;;;;;4957004;28;20935;-66
2021/10/31 03:55:00;;;;;;;3.53;3.23;;;10.50;99.90;;;;;;4957052;28;20678;-66
2021/10/31 03:57:26;;;;;;;5.10;3.70;;;10.40;99.90;;;;;;4956566;28;20177;-67
2021/10/31 03:59:51;;;;;;;3.73;3.30;;;10.40;99.90;;;;;;4956822;28;20203;-66
2021/10/31 04:02:17;;;;;;;3.87;3.57;;;10.40;99.90;;;;;;4956856;28;20546;-66
2021/10/31 04:04:42;;;;;;;3.17;2.87;;;10.40;99.90;;;;;;4956971;28;20201;-67
2021/10/31 04:07:08;;;;;;;3.33;3.03;;;10.40;99.90;;;;;;4956709;28;20184;-70
2021/10/31 04:09:33;;;;;;;3.77;3.37;;;10.50;99.90;;;;;;4955429;29;20201;-66
2021/10/31 04:12:00;;;;;;;3.77;3.47;;;10.40;99.90;;;;;;4957091;28;20531;-66
2021/10/31 04:14:25;;;;;;;4.00;3.70;;;10.50;99.90;;;;;;4956627;28;20560;-66
2021/10/31 04:16:51;;;;;;;3.77;3.47;;;10.50;99.90;;;;;;4956560;28;20436;-65
2021/10/31 04:19:16;;;;;;;4.00;3.60;;;10.50;99.90;;;;;;4956122;28;20213;-66
2021/10/31 04:21:42;;;;;;;4.20;3.80;;;10.50;99.90;;;;;;4956486;28;20169;-66
2021/10/31 04:24:08;;;;;;;5.60;3.40;;;10.50;99.90;;;;;;4956428;28;20205;-66
2021/10/31 04:26:33;;;;;;;8.20;3.80;;;10.50;99.90;;;;;;4956456;28;20177;-66
2021/10/31 04:28:59;;;;;;;3.43;3.13;;;10.50;99.90;;;;;;4956552;28;20189;-66
2021/10/31 04:31:24;;;;;;;4.10;3.40;;;10.50;99.90;;;;;;4956395;28;20650;-66
2021/10/31 04:33:50;;;;;;;5.67;3.80;;;10.50;99.90;;;;;;4956364;28;20710;-65
2021/10/31 04:36:17;;;;;;;3.90;3.50;;;10.40;99.90;;;;;;4956328;28;20293;-67
2021/10/31 04:38:43;;;;;;;3.40;3.10;;;10.40;99.90;;;;;;4955899;28;20232;-66
2021/10/31 04:41:09;;;;;;;4.27;3.87;;;10.40;99.90;;;;;;4956177;28;20888;-65
2021/10/31 04:43:35;;;;;;;4.17;3.77;;;10.40;99.90;;;;;;4955708;28;20714;-66
2021/10/31 04:46:00;;;;;;;3.97;3.67;;;10.40;99.90;;;;;;4956137;28;20417;-66
2021/10/31 04:48:26;;;;;;;4.60;3.30;;;10.30;99.90;;;;;;4955648;28;20616;-65
2021/10/31 04:50:52;;;;;;;3.60;3.30;;;10.30;99.90;;;;;;4956101;28;20256;-65
2021/10/31 04:53:18;;;;;;;3.60;3.30;;;10.40;99.90;;;;;;4955965;29;20208;-66
2021/10/31 04:55:44;;;;;;;4.57;4.17;;;10.40;99.90;;;;;;4955633;28;20424;-66
2021/10/31 04:58:10;;;;;;;5.70;5.20;;;10.40;99.90;;;;;;4955747;28;20233;-66
2021/10/31 05:00:36;;;;;;;6.27;4.93;;;10.30;99.90;;;;;;4955903;28;20197;-66
2021/10/31 05:03:02;;;;;;;6.00;4.67;;;10.40;99.90;;;;;;4955671;28;20771;-66
2021/10/31 05:05:28;;;;;;;4.80;4.10;;;10.40;99.90;;;;;;4955760;28;20431;-67
2021/10/31 05:07:57;;;;;;;7.90;4.87;;;10.50;99.90;;;;;;4955352;28;20447;-66
2021/10/31 05:10:24;;;;;;;4.47;4.07;;;10.40;99.90;;;;;;4955674;28;20468;-66
2021/10/31 05:12:50;;;;;;;5.23;4.73;;;10.40;99.90;;;;;;4955676;28;20431;-65
2021/10/31 05:15:15;;;;;;;5.53;4.50;;;10.40;99.90;;;;;;4955604;28;20894;-66
2021/10/31 05:17:41;;;;;;;5.03;4.63;;;10.40;99.90;;;;;;4954989;28;20275;-66
2021/10/31 05:20:09;;;;;;;4.83;4.30;;;10.40;99.90;;;;;;4955714;28;20586;-65
2021/10/31 05:22:36;;;;;;;5.13;4.67;;;10.40;99.90;;;;;;4955786;28;20989;-66
2021/10/31 05:25:02;;;;;;;4.37;4.07;;;10.50;99.90;;;;;;4955298;28;21013;-65
2021/10/31 05:27:28;;;;;;;4.67;4.37;;;10.50;99.90;;;;;;4955049;28;20452;-67
2021/10/31 05:29:53;;;;;;;4.47;4.03;;;10.50;99.90;;;;;;4955356;28;20485;-66
2021/10/31 05:32:19;;;;;;;5.07;4.57;;;10.50;99.90;;;;;;4955204;28;20172;-65
2021/10/31 05:34:44;;;;;;;5.10;4.33;;;10.40;99.90;;;;;;4955313;28;20590;-67
2021/10/31 05:37:10;;;;;;;6.53;4.23;;;10.30;99.90;;;;;;4955111;28;20263;-65
2021/10/31 05:39:35;;;;;;;4.40;4.00;;;10.20;99.90;;;;;;4954883;28;20193;-66
2021/10/31 05:42:01;;;;;;;5.87;3.87;;;10.20;99.90;;;;;;4955131;28;20640;-65
2021/10/31 05:44:26;;;;;;;6.03;4.47;;;10.20;99.90;;;;;;4955022;28;20200;-65
2021/10/31 05:46:52;;;;;;;5.67;5.17;;;10.20;99.90;;;;;;4954905;28;20177;-66
2021/10/31 05:49:17;;;;;;;5.00;4.30;;;10.20;99.90;;;;;;4954615;28;20205;-66
2021/10/31 05:51:43;;;;;;;4.83;4.27;;;10.20;99.90;;;;;;4954917;28;20195;-65
2021/10/31 05:54:09;;;;;;;5.13;4.63;;;10.20;99.90;;;;;;4954927;28;20558;-66
2021/10/31 05:56:35;;;;;;;5.10;4.60;;;10.20;99.90;;;;;;4954875;28;20643;-66
2021/10/31 05:59:01;;;;;;;4.67;4.30;;;10.30;99.90;;;;;;4954531;28;20645;-66
2021/10/31 06:01:26;;;;;;;6.10;4.27;;;10.30;99.90;;;;;;4954704;28;20228;-65
2021/10/31 06:03:52;;;;;;;4.80;4.40;;;10.40;99.90;;;;;;4954662;28;20287;-66
2021/10/31 06:06:23;;;;;;;5.47;5.00;;;10.40;99.90;;;;;;4954640;28;20610;-66
2021/10/31 06:08:49;;;;;;;6.00;5.50;;;10.50;99.90;;;;;;4953684;28;20184;-66
2021/10/31 06:11:15;;;;;;;6.30;5.53;;;10.50;99.90;;;;;;4954691;28;20420;-66
2021/10/31 06:13:41;;;;;;;6.63;6.03;;;10.50;99.90;;;;;;4954525;28;20429;-65
2021/10/31 06:16:07;;;;;;;6.97;6.33;;;10.50;99.90;;;;;;4954363;28;20499;-66
2021/10/31 06:18:34;;;;;;;9.00;6.53;;;10.50;99.90;;;;;;4954030;28;20213;-65
2021/10/31 06:21:00;;;;;;;6.37;5.83;;;10.50;99.90;;;;;;4954481;28;20420;-66
2021/10/31 06:23:26;;;;;;;7.80;7.03;;;10.50;99.90;;;;;;4954312;28;20464;-66
2021/10/31 06:25:51;;;;;;;7.40;6.70;;;10.50;99.90;;;;;;4954372;28;20760;-65
2021/10/31 06:28:17;;;;;;;7.57;6.77;;;10.50;99.90;;;;;;4953910;28;20675;-67
2021/10/31 06:30:42;;;;;;;7.27;6.57;;;10.50;99.90;;;;;;4954273;28;20264;-65
2021/10/31 06:33:08;;;;;;;5.93;5.40;;;10.40;99.90;;;;;;4954262;28;20240;-65
2021/10/31 06:35:33;;;;;;;6.40;5.80;;;10.40;99.90;;;;;;4954240;28;20551;-67
2021/10/31 06:38:01;;;;;;;5.33;4.93;;;10.50;99.90;;;;;;4953878;28;20848;-66
2021/10/31 06:40:26;;;;;;;5.30;4.80;;;10.60;99.90;;;;;;4954230;28;20212;-66
2021/10/31 06:42:52;;;;;;;6.63;5.97;;;10.70;99.90;;;;;;4954148;28;20810;-67
2021/10/31 06:45:18;;;;;;;6.07;5.57;;;10.80;99.90;;;;;;4954063;28;20199;-66
2021/10/31 06:47:44;;;;;;;6.37;5.50;;;10.90;99.90;;;;;;4953699;28;20858;-65
2021/10/31 06:50:10;;;;;;;5.77;4.57;;;11.10;99.90;;;;;;4954114;28;20417;-65
2021/10/31 06:52:35;;;;;;;6.13;5.63;;;11.30;99.90;;;;;;4954048;28;20173;-66
2021/10/31 06:55:01;;;;;;;5.80;5.30;;;11.50;99.90;;;;;;4954030;28;20559;-65
2021/10/31 06:57:27;;;;;;;5.60;5.07;;;11.70;99.90;;;;;;4953732;28;20707;-65
2021/10/31 06:59:53;;;;;;;5.67;5.17;;;12.00;99.90;;;;;;4953830;28;20447;-65
2021/10/31 07:02:18;;;;;;;4.60;4.20;;;12.00;99.90;;;;;;4953897;28;20188;-65
2021/10/31 07:04:44;;;;;;;8.30;4.90;;;12.20;99.90;;;;;;4953824;28;20200;-66
2021/10/31 07:07:09;;;;;;;5.27;4.63;;;12.30;99.90;;;;;;4953871;28;20185;-66
2021/10/31 07:09:35;;;;;;;5.10;4.60;;;12.50;99.90;;;;;;4953609;28;20216;-65
2021/10/31 07:12:00;;;;;;;4.57;4.17;;;12.70;99.90;;;;;;4953778;28;20858;-67
2021/10/31 07:14:26;;;;;;;4.27;3.87;;;12.80;99.90;;;;;;4953806;28;20235;-65
2021/10/31 07:16:52;;;;;;;3.90;3.60;;;13.10;99.90;;;;;;4953870;28;20653;-66
2021/10/31 07:19:17;;;;;;;4.67;4.27;;;13.60;99.90;;;;;;4955353;28;20617;-66
2021/10/31 07:21:44;;;;;;;4.87;4.47;;;14.00;99.90;;;;;;4957648;28;20180;-65
2021/10/31 07:24:09;;;;;;;4.67;4.27;;;14.30;99.90;;;;;;4957256;28;20588;-72
2021/10/31 07:26:35;;;;;;;4.80;4.30;;;14.50;99.90;;;;;;4960893;28;20511;-72
2021/10/31 07:29:02;;;;;;;5.03;4.63;;;14.70;99.90;;;;;;4966004;28;20678;-72
2021/10/31 07:31:31;;;;;;;7.80;6.77;;;14.90;99.90;;;;;;4965039;28;20194;-72
2021/10/31 07:33:56;;;;;;;5.30;4.80;;;15.20;99.90;;;;;;4980048;28;20531;-72
2021/10/31 07:36:22;;;;;;;5.20;4.70;;;14.90;99.90;;;;;;4966249;28;21008;-72
2021/10/31 07:38:47;;;;;;;4.80;4.40;;;14.60;99.90;;;;;;4965887;28;20226;-65
2021/10/31 07:41:13;;;;;;;5.37;4.97;;;14.50;99.90;;;;;;4966193;28;20173;-64
2021/10/31 07:43:39;;;;;;;4.47;4.10;;;14.50;99.90;;;;;;4965773;28;20691;-65
2021/10/31 07:46:04;;;;;;;9.33;5.60;;;14.90;99.90;;;;;;4966530;28;20681;-65
2021/10/31 07:48:30;;;;;;;6.43;5.80;;;15.20;99.90;;;;;;4976084;28;20200;-67
2021/10/31 07:50:55;;;;;;;6.40;5.80;;;15.50;99.90;;;;;;4976334;28;20205;-65
2021/10/31 07:53:21;;;;;;;5.37;4.63;;;16.30;99.90;;;;;;4976537;28;20264;-65
2021/10/31 07:55:51;;;;;;;5.37;4.87;;;16.90;99.90;;;;;;4976324;28;20173;-66
2021/10/31 07:58:20;;;;;;;11.47;6.00;;;17.60;99.90;;;;;;4975946;28;20560;-66
2021/10/31 08:00:46;;;;;;;5.90;5.07;;;17.80;99.90;;;;;;4976222;28;20432;-66
2021/10/31 08:03:12;;;;;;;7.03;6.07;;;17.70;99.90;;;;;;4976096;28;20788;-66
2021/10/31 08:05:38;;;;;;;6.90;5.60;;;17.90;99.90;;;;;;4974989;28;20459;-66
2021/10/31 08:08:04;;;;;;;6.03;5.50;;;18.10;99.90;;;;;;4975707;28;20208;-66
2021/10/31 08:10:30;;;;;;;5.83;5.33;;;18.00;99.90;;;;;;4976039;28;20452;-66
2021/10/31 08:12:56;;;;;;;5.70;5.30;;;17.00;99.90;;;;;;4975979;28;20423;-65
2021/10/31 08:15:21;;;;;;;6.23;5.63;;;16.40;99.90;;;;;;4976008;28;20180;-65
2021/10/31 08:17:47;;;;;;;6.83;5.80;;;16.00;99.90;;;;;;4975442;28;20664;-66
2021/10/31 08:20:13;;;;;;;7.03;6.37;;;16.00;99.90;;;;;;4976197;28;20180;-67
2021/10/31 08:22:38;;;;;;;7.77;7.07;;;16.20;99.90;;;;;;4975834;28;20211;-66
2021/10/31 08:25:04;;;;;;;7.30;6.67;;;16.90;99.90;;;;;;4975795;28;20456;-65
2021/10/31 08:27:34;;;;;;;6.40;5.90;;;17.30;99.90;;;;;;4975497;28;20176;-65
2021/10/31 08:29:59;;;;;;;7.43;4.43;;;16.40;99.90;;;;;;4975166;28;20172;-65
2021/10/31 08:32:27;;;;;;;5.17;4.67;;;16.20;99.90;;;;;;4990474;28;20791;-65
2021/10/31 08:34:53;;;;;;;5.00;4.60;;;16.30;99.90;;;;;;4975522;28;20585;-65
2021/10/31 08:37:19;;;;;;;6.07;5.47;;;16.50;99.90;;;;;;4975320;28;20411;-69
2021/10/31 08:39:44;;;;;;;6.30;5.80;;;17.00;99.90;;;;;;4975489;28;20534;-65
2021/10/31 08:42:13;;;;;;;6.30;5.80;;;17.10;99.90;;;;;;4975554;28;20259;-66
2021/10/31 08:44:41;;;;;;;8.77;5.70;;;17.30;99.90;;;;;;4975578;28;20212;-65
2021/10/31 08:47:07;;;;;;;5.63;5.13;;;17.60;99.90;;;;;;4975376;28;20419;-66
2021/10/31 08:49:33;;;;;;;5.40;5.00;;;18.10;99.90;;;;;;4974710;28;20441;-66
2021/10/31 08:52:04;;;;;;;5.10;4.70;;;18.40;99.90;;;;;;4975652;28;20706;-66
2021/10/31 08:54:29;;;;;;;4.47;4.10;;;18.90;99.90;;;;;;4975296;28;20195;-65
2021/10/31 08:56:55;;;;;;;5.43;4.20;;;19.10;99.90;;;;;;4975281;28;20463;-65
2021/10/31 08:59:20;;;;;;;4.80;4.47;;;18.90;99.90;;;;;;4974928;28;20196;-66
2021/10/31 09:01:46;;;;;;;5.67;5.00;;;18.40;99.90;;;;;;4975140;28;20180;-65
2021/10/31 09:04:12;;;;;;;5.43;4.93;;;18.20;99.90;;;;;;4975090;28;20194;-65
2021/10/31 09:06:37;;;;;;;5.33;4.83;;;18.40;99.90;;;;;;4973791;28;20180;-66
2021/10/31 09:09:03;;;;;;;6.63;6.07;;;18.50;99.90;;;;;;4974623;28;20312;-68
2021/10/31 09:11:28;;;;;;;6.27;5.67;;;18.60;99.90;;;;;;4975019;28;20176;-66
2021/10/31 09:13:54;;;;;;;5.70;5.10;;;18.90;99.90;;;;;;4974945;28;20542;-66
2021/10/31 09:16:19;;;;;;;6.13;5.67;;;20.00;99.90;;;;;;4971296;28;20184;-67
2021/10/31 09:18:45;;;;;;;7.07;6.47;;;19.90;99.90;;;;;;4955043;28;20216;-65
2021/10/31 09:21:11;;;;;;;6.83;6.23;;;19.80;99.90;;;;;;4955476;28;20181;-65
2021/10/31 09:23:37;;;;;;;6.30;5.90;;;20.10;99.90;;;;;;4955170;28;20448;-65
2021/10/31 09:26:04;;;;;;;6.33;5.83;;;19.60;99.90;;;;;;4960119;28;20226;-66
2021/10/31 09:28:30;;;;;;;7.70;7.10;;;20.00;99.90;;;;;;4963721;28;20511;-66
2021/10/31 09:30:55;;;;;;;6.10;5.60;;;20.30;99.90;;;;;;4964019;28;20420;-68
2021/10/31 09:33:21;;;;;;;6.03;5.63;;;21.60;99.90;;;;;;4963985;28;20256;-67
2021/10/31 09:35:49;;;;;;;6.63;6.13;;;23.00;99.90;;;;;;4963922;28;20355;-67
2021/10/31 09:38:17;;;;;;;6.30;5.70;;;22.50;99.90;;;;;;4961371;28;20195;-65
2021/10/31 09:40:44;;;;;;;6.60;5.90;;;22.30;99.90;;;;;;4963192;28;20792;-66
2021/10/31 09:43:09;;;;;;;6.40;5.90;;;23.00;99.90;;;;;;4962246;28;20433;-66
2021/10/31 09:45:37;;;;;;;5.70;5.30;;;23.30;99.90;;;;;;4963193;28;20514;-67
2021/10/31 09:48:12;;;;;;;6.23;5.80;;;22.70;99.90;;;;;;4963080;28;20204;-66
2021/10/31 09:50:42;;;;;;;4.90;4.50;;;23.90;99.90;;;;;;4961241;28;20432;-72
2021/10/31 09:53:09;;;;;;;5.37;4.97;;;24.40;97.80;;;;;;4963708;28;20455;-66
2021/10/31 09:55:35;;;;;;;5.30;4.60;;;24.20;98.70;;;;;;4955297;28;20488;-66
2021/10/31 09:58:04;;;;;;;5.23;4.90;;;25.70;96.50;;;;;;4952554;28;20445;-64
2021/10/31 10:00:36;;;;;;;4.80;4.47;;;25.80;94.40;;;;;;4953082;28;20180;-66
2021/10/31 10:03:21;;;;;;;4.53;4.23;;;24.90;95.00;;;;;;4953991;28;20807;-65
2021/10/31 10:05:47;;;;;;;3.97;3.67;;;24.70;95.10;;;;;;4954118;28;20431;-63
2021/10/31 10:08:16;;;;;;;6.67;4.30;;;25.40;94.00;;;;;;4953934;28;20867;-64
2021/10/31 10:10:42;;;;;;;6.20;3.90;;;25.00;94.40;;;;;;4954433;28;20169;-66
2021/10/31 10:13:26;;;;;;;4.17;3.77;;;24.90;94.40;;;;;;4954541;28;20421;-64
2021/10/31 10:16:11;;;;;;;3.90;3.60;;;24.70;94.30;;;;;;4954595;28;20179;-64
2021/10/31 10:18:37;;;;;;;4.10;3.80;;;24.50;94.70;;;;;;4954051;28;20546;-65
2021/10/31 10:21:21;;;;;;;3.93;3.50;;;24.60;94.50;;;;;;4954363;28;20528;-66
2021/10/31 10:23:48;;;;;;;3.37;3.17;;;25.00;94.30;;;;;;4954345;28;20189;-66
2021/10/31 10:26:23;;;;;;;4.17;3.90;;;25.60;93.50;;;;;;4954560;28;20427;-66
2021/10/31 10:28:49;;;;;;;4.20;3.90;;;27.20;92.00;;;;;;4954539;28;20440;-68
2021/10/31 10:31:23;;;;;;;4.60;4.30;;;28.30;89.00;;;;;;4954313;28;20413;-65
2021/10/31 10:33:50;;;;;;;4.07;3.67;;;28.00;86.80;;;;;;4954203;28;20639;-65
2021/10/31 10:36:17;;;;;;;3.40;3.10;;;27.50;86.70;;;;;;4954294;28;20424;-66
2021/10/31 10:38:57;;;;;;;5.30;3.03;;;28.00;87.00;;;;;;4953846;28;20444;-65
2021/10/31 10:41:41;;;;;;;3.77;3.47;;;27.80;82.90;;;;;;4954126;28;20424;-65
2021/10/31 10:44:22;;;;;;;3.33;3.03;;;29.90;78.70;;;;;;4953940;28;20536;-68
2021/10/31 10:46:50;;;;;;;3.93;3.63;;;29.30;74.00;;;;;;4954119;28;20416;-65
2021/10/31 10:49:20;;;;;;;3.20;2.90;;;30.00;71.90;;;;;;4953793;28;20487;-65
2021/10/31 10:52:06;;;;;;;3.93;3.63;;;30.20;71.00;;;;;;4954040;28;20505;-66
2021/10/31 10:54:33;;;;;;;3.00;2.80;;;31.90;65.70;;;;;;4953660;28;21187;-66
2021/10/31 10:57:08;;;;;;;3.70;3.40;;;31.90;64.80;;;;;;4952738;29;20965;-66
2021/10/31 10:59:35;;;;;;;3.77;3.47;;;33.40;59.60;;;;;;4953692;28;20446;-66
2021/10/31 11:02:17;;;;;;;3.70;3.40;;;33.90;57.40;;;;;;4953910;28;20850;-64
2021/10/31 11:04:46;;;;;;;3.33;3.13;;;34.70;53.90;;;;;;4953833;28;20508;-65
2021/10/31 11:07:13;;;;;;;2.93;2.73;;;34.70;51.90;;;;;;4953750;28;20423;-66
2021/10/31 11:09:42;;;;;;;3.30;3.07;;;34.70;50.30;;;;;;4953658;28;20474;-66
2021/10/31 11:12:26;;;;;;;3.37;2.53;;;34.50;50.50;;;;;;4953857;28;20439;-65
2021/10/31 11:14:56;;;;;;;2.07;1.97;;;32.90;48.00;;;;;;4953873;28;20768;-66
2021/10/31 11:17:23;;;;;;;2.43;2.33;;;30.60;49.60;;;;;;4953459;28;20980;-65
2021/10/31 11:19:49;;;;;;;2.93;2.63;;;28.70;50.80;;;;;;4953808;28;20451;-64
2021/10/31 11:22:15;;;;;;;2.80;2.60;;;27.40;53.90;;;;;;4953664;28;20413;-65
2021/10/31 11:24:49;;;;;;;2.30;2.20;;;28.00;53.40;;;;;;4953558;28;21026;-65
2021/10/31 11:27:20;;;;;;;2.53;2.40;;;28.70;52.80;;;;;;4953584;28;20420;-66
2021/10/31 11:29:47;;;;;;;2.40;2.20;;;29.80;52.30;;;;;;4953620;28;20437;-66
2021/10/31 11:32:16;;;;;;;3.03;2.73;;;30.70;50.60;;;;;;4953651;28;20981;-66
2021/10/31 11:34:47;;;;;;;4.27;3.97;;;29.80;50.30;;;;;;4953657;28;20894;-65
2021/10/31 11:37:16;;;;;;;4.73;4.33;;;30.80;49.90;;;;;;4953517;28;20796;-66
2021/10/31 11:39:43;;;;;;;3.07;2.47;;;32.10;48.70;;;;;;4953411;28;20874;-65
2021/10/31 11:42:09;;;;;;;2.77;2.57;;;31.70;48.80;;;;;;4953578;28;20425;-65
2021/10/31 11:44:58;;;;;;;3.00;2.80;;;32.20;47.90;;;;;;4953777;28;20796;-65
2021/10/31 11:47:29;;;;;;;2.40;2.30;;;32.10;46.80;;;;;;4953260;28;20839;-66
2021/10/31 11:50:17;;;;;;;2.10;2.00;;;29.90;48.30;;;;;;4953476;28;20452;-66
2021/10/31 11:52:49;;;;;;;2.43;2.30;;;30.50;48.40;;;;;;4953419;28;21029;-65
2021/10/31 11:55:30;;;;;;;2.93;2.63;;;31.20;48.10;;;;;;4953430;29;20435;-66
2021/10/31 11:58:05;;;;;;;2.67;2.53;;;32.40;46.60;;;;;;4953067;28;20954;-64
2021/10/31 12:00:32;;;;;;;4.03;3.73;;;32.30;46.70;;;;;;4953489;28;20428;-66
2021/10/31 12:03:03;;;;;;;3.27;2.97;;;33.00;46.50;;;;;;4953268;28;20439;-65
2021/10/31 12:05:38;;;;;;;4.33;2.83;;;32.40;46.30;;;;;;4952860;28;20299;-66
2021/10/31 12:08:05;;;;;;;3.03;2.83;;;33.20;45.30;;;;;;4956438;28;20447;-65
2021/10/31 12:10:33;;;;;;;2.00;1.90;;;32.30;45.30;;;;;;4956911;28;20448;-65
2021/10/31 12:13:17;;;;;;;3.20;3.00;;;32.30;44.30;;;;;;4956771;28;20424;-65
2021/10/31 12:16:04;;;;;;;2.83;2.63;;;33.80;43.70;;;;;;4956570;28;20471;-66
2021/10/31 12:18:43;;;;;;;3.03;2.83;;;31.40;43.90;;;;;;4956202;28;20460;-65
2021/10/31 12:21:25;;;;;;;2.70;2.50;;;30.60;44.60;;;;;;4956593;28;20417;-66
2021/10/31 12:24:12;;;;;;;2.57;2.37;;;29.70;44.40;;;;;;4956368;28;20536;-65
2021/10/31 12:26:47;;;;;;;2.77;2.57;;;30.10;45.30;;;;;;4955237;29;21099;-66
2021/10/31 12:29:25;;;;;;;3.80;3.50;;;31.70;44.30;;;;;;4956076;28;20515;-65
2021/10/31 12:32:01;;;;;;;3.60;3.30;;;32.80;42.50;;;;;;4956378;28;20431;-65
2021/10/31 12:34:39;;;;;;;3.00;2.80;;;32.70;43.00;;;;;;4956387;28;20907;-66
2021/10/31 12:37:28;;;;;;;2.47;2.37;;;33.50;41.20;;;;;;4956321;28;20424;-66
2021/10/31 12:39:55;;;;;;;2.80;2.70;;;32.70;41.40;;;;;;4950988;29;20970;-65
2021/10/31 12:42:27;;;;;;;2.47;2.27;;;32.80;41.30;;;;;;4956180;28;20428;-66
2021/10/31 12:44:59;;;;;;;2.90;2.70;;;32.40;41.20;;;;;;4956058;28;20453;-65
2021/10/31 12:48:06;;;;;;;2.70;2.57;;;31.00;43.10;;;;;;4955828;28;20424;-65
2021/10/31 12:50:33;;;;;;;8.07;3.93;;;31.80;42.70;;;;;;4950557;29;20432;-65
2021/10/31 12:53:02;;;;;;;2.87;2.67;;;31.20;41.90;;;;;;4986975;28;20923;-65
2021/10/31 12:55:29;;;;;;;4.07;2.37;;;30.70;42.70;;;;;;4956010;28;20423;-66
2021/10/31 12:57:58;;;;;;;4.90;2.40;;;29.10;44.30;;;;;;4955605;28;20453;-65